createdAt,value
2022-11-25T00:00:14.073Z,0.93
2022-11-25T00:01:47.330Z,0.80
2022-11-25T00:03:21.072Z,0.70
2022-11-25T00:04:54.265Z,1.13
2022-11-25T00:06:29.624Z,0.80
2022-11-25T00:08:02.825Z,1.10
2022-11-25T00:09:35.919Z,0.95
2022-11-25T00:11:10.380Z,0.73
2022-11-25T00:12:43.661Z,0.80
2022-11-25T00:14:17.136Z,0.90
2022-11-25T00:15:49.348Z,0.68
2022-11-25T00:17:22.606Z,0.85
2022-11-25T00:19:00.423Z,1.35
2022-11-25T00:20:33.575Z,0.90
2022-11-25T00:22:06.621Z,0.85
2022-11-25T00:23:40.141Z,1.00
2022-11-25T00:25:13.544Z,1.08
2022-11-25T00:26:46.813Z,0.70
2022-11-25T00:28:19.030Z,0.88
2022-11-25T00:29:52.186Z,0.90
2022-11-25T00:31:28.772Z,0.65
2022-11-25T00:33:00.961Z,0.90
2022-11-25T00:34:35.664Z,1.02
2022-11-25T00:36:17.541Z,1.00
2022-11-25T00:37:51.720Z,0.75
2022-11-25T00:39:26.974Z,1.05
2022-11-25T00:41:14.191Z,0.93
2022-11-25T00:43:05.054Z,1.40
2022-11-25T00:44:40.217Z,0.70
2022-11-25T00:46:13.051Z,1.13
2022-11-25T00:47:46.332Z,1.17
2022-11-25T00:49:18.638Z,1.88
2022-11-25T00:50:53.849Z,1.08
2022-11-25T00:52:28.271Z,1.20
2022-11-25T00:54:00.508Z,1.67
2022-11-25T00:55:54.724Z,0.82
2022-11-25T00:57:27.867Z,0.82
2022-11-25T00:59:01.030Z,0.80
2022-11-25T01:00:34.145Z,0.90
2022-11-25T01:02:08.312Z,0.90
2022-11-25T01:03:41.621Z,0.85
2022-11-25T01:05:15.005Z,0.80
2022-11-25T01:06:49.607Z,1.05
2022-11-25T01:08:22.796Z,1.00
2022-11-25T01:09:55.919Z,0.77
2022-11-25T01:11:30.169Z,0.93
2022-11-25T01:13:03.296Z,1.05
2022-11-25T01:14:37.395Z,0.82
2022-11-25T01:16:14.433Z,0.80
2022-11-25T01:17:47.638Z,1.02
2022-11-25T01:19:21.295Z,0.77
2022-11-25T01:20:54.463Z,1.10
2022-11-25T01:22:29.042Z,1.20
2022-11-25T01:24:04.396Z,0.88
2022-11-25T01:25:39.537Z,0.90
2022-11-25T01:27:12.769Z,0.80
2022-11-25T01:28:45.193Z,1.00
2022-11-25T01:30:18.636Z,0.60
2022-11-25T01:31:55.306Z,1.00
2022-11-25T01:33:27.695Z,1.10
2022-11-25T01:35:00.829Z,1.10
2022-11-25T01:36:34.660Z,0.93
2022-11-25T01:38:10.611Z,0.93
2022-11-25T01:39:43.741Z,0.82
2022-11-25T01:41:16.955Z,0.77
2022-11-25T01:42:50.576Z,1.08
2022-11-25T01:44:29.811Z,0.70
2022-11-25T01:46:13.496Z,1.20
2022-11-25T01:47:46.833Z,0.73
2022-11-25T01:49:28.718Z,1.00
2022-11-25T01:51:02.087Z,1.23
2022-11-25T01:52:39.949Z,0.82
2022-11-25T01:54:21.543Z,1.00
2022-11-25T01:56:01.375Z,1.08
2022-11-25T01:57:41.478Z,0.98
2022-11-25T01:59:14.288Z,0.90
2022-11-25T02:00:51.522Z,0.70
2022-11-25T02:02:25.550Z,0.85
2022-11-25T02:04:00.073Z,1.13
2022-11-25T02:05:43.408Z,0.70
2022-11-25T02:07:25.109Z,1.08
2022-11-25T02:09:04.881Z,0.88
2022-11-25T02:10:40.680Z,0.82
2022-11-25T02:12:17.431Z,0.93
2022-11-25T02:13:52.686Z,1.00
2022-11-25T02:15:26.544Z,1.15
2022-11-25T02:17:01.355Z,0.70
2022-11-25T02:18:35.011Z,1.02
2022-11-25T02:20:11.614Z,0.80
2022-11-25T02:21:53.255Z,1.20
2022-11-25T02:23:37.761Z,1.25
2022-11-25T02:25:17.429Z,1.02
2022-11-25T02:26:50.645Z,0.88
2022-11-25T02:28:26.195Z,1.20
2022-11-25T02:29:59.480Z,1.05
2022-11-25T02:31:32.722Z,1.33
2022-11-25T02:33:07.383Z,0.85
2022-11-25T02:34:48.709Z,0.80
2022-11-25T02:36:24.858Z,1.10
2022-11-25T02:38:08.812Z,0.95
2022-11-25T02:39:43.351Z,1.00
2022-11-25T02:41:22.277Z,1.10
2022-11-25T02:43:01.058Z,1.17
2022-11-25T02:44:34.756Z,1.10
2022-11-25T02:46:16.159Z,1.02
2022-11-25T02:47:52.171Z,1.17
2022-11-25T02:49:25.413Z,0.88
2022-11-25T02:50:57.944Z,1.00
2022-11-25T02:52:31.067Z,1.10
2022-11-25T02:54:04.637Z,1.13
2022-11-25T02:55:36.826Z,1.08
2022-11-25T02:57:11.479Z,0.98
2022-11-25T02:58:44.651Z,1.05
2022-11-25T03:00:18.862Z,0.80
2022-11-25T03:01:52.112Z,1.00
2022-11-25T03:03:24.567Z,1.00
2022-11-25T03:04:57.766Z,1.00
2022-11-25T03:06:31.906Z,1.85
2022-11-25T03:08:05.921Z,1.00
2022-11-25T03:09:43.477Z,1.00
2022-11-25T03:11:18.741Z,0.70
2022-11-25T03:12:52.508Z,1.20
2022-11-25T03:14:26.631Z,1.08
2022-11-25T03:15:59.828Z,1.15
2022-11-25T03:17:33.489Z,1.15
2022-11-25T03:19:06.758Z,1.30
2022-11-25T03:20:40.253Z,0.93
2022-11-25T03:22:12.631Z,1.10
2022-11-25T03:23:46.004Z,0.75
2022-11-25T03:25:20.470Z,1.05
2022-11-25T03:26:56.167Z,0.85
2022-11-25T03:28:30.766Z,1.17
2022-11-25T03:30:09.343Z,0.90
2022-11-25T03:31:42.653Z,1.30
2022-11-25T03:34:52.382Z,1.00
2022-11-25T03:36:25.568Z,1.17
2022-11-25T03:37:58.803Z,1.08
2022-11-25T03:39:32.125Z,1.63
2022-11-25T03:41:05.776Z,0.90
2022-11-25T03:42:39.516Z,0.93
2022-11-25T03:44:15.028Z,0.93
2022-11-25T03:47:24.057Z,0.80
2022-11-25T03:48:57.665Z,1.00
2022-11-25T03:50:30.782Z,1.83
2022-11-25T03:52:05.084Z,0.70
2022-11-25T03:53:38.227Z,0.98
2022-11-25T03:55:13.991Z,1.00
2022-11-25T03:56:50.639Z,1.30
2022-11-25T03:58:23.960Z,0.90
2022-11-25T03:59:59.145Z,0.65
2022-11-25T04:01:32.671Z,0.90
2022-11-25T04:03:06.165Z,1.15
2022-11-25T04:04:39.745Z,0.82
2022-11-25T04:06:15.852Z,1.23
2022-11-25T04:07:52.335Z,1.20
2022-11-25T04:09:29.576Z,1.75
2022-11-25T04:11:05.617Z,1.20
2022-11-25T04:12:49.557Z,0.90
2022-11-25T04:14:26.802Z,0.90
2022-11-25T04:16:01.512Z,0.98
2022-11-25T04:17:34.901Z,1.00
2022-11-25T04:19:08.566Z,0.95
2022-11-25T04:20:42.405Z,1.10
2022-11-25T04:22:14.617Z,1.70
2022-11-25T04:23:50.680Z,0.90
2022-11-25T04:25:24.025Z,1.00
2022-11-25T04:26:58.168Z,0.85
2022-11-25T04:28:32.113Z,0.90
2022-11-25T04:30:07.176Z,1.20
2022-11-25T04:31:44.676Z,0.70
2022-11-25T04:34:51.653Z,0.70
2022-11-25T04:36:24.536Z,0.90
2022-11-25T04:37:58.749Z,1.30
2022-11-25T04:39:32.650Z,1.05
2022-11-25T04:41:11.476Z,0.90
2022-11-25T04:42:47.762Z,0.80
2022-11-25T04:44:22.434Z,0.95
2022-11-25T04:46:13.459Z,1.20
2022-11-25T04:47:50.007Z,0.90
2022-11-25T04:50:55.697Z,0.90
2022-11-25T04:52:29.154Z,0.80
2022-11-25T04:54:02.290Z,0.90
2022-11-25T04:57:16.677Z,1.00
2022-11-25T04:59:09.605Z,1.00
2022-11-25T05:00:46.608Z,0.90
2022-11-25T05:02:25.105Z,1.20
2022-11-25T05:04:05.781Z,1.20
2022-11-25T05:05:40.293Z,1.20
2022-11-25T05:07:15.736Z,1.25
2022-11-25T05:08:51.013Z,1.25
2022-11-25T05:10:24.765Z,1.02
2022-11-25T05:11:56.999Z,1.33
2022-11-25T05:13:30.248Z,1.60
2022-11-25T05:15:05.581Z,1.17
2022-11-25T05:16:41.044Z,0.98
2022-11-25T05:19:53.615Z,0.73
2022-11-25T05:23:00.419Z,0.80
2022-11-25T05:24:33.881Z,0.90
2022-11-25T05:26:07.181Z,1.05
2022-11-25T05:27:45.796Z,1.15
2022-11-25T05:29:20.914Z,1.38
2022-11-25T05:30:54.369Z,1.30
2022-11-25T05:32:27.640Z,1.23
2022-11-25T05:34:04.650Z,1.10
2022-11-25T05:35:39.091Z,0.93
2022-11-25T05:37:17.725Z,0.95
2022-11-25T05:39:01.607Z,1.20
2022-11-25T05:40:51.873Z,1.30
2022-11-25T05:42:25.133Z,1.23
2022-11-25T05:43:59.279Z,1.33
2022-11-25T05:45:31.590Z,1.10
2022-11-25T05:47:05.358Z,0.95
2022-11-25T05:48:39.201Z,0.98
2022-11-25T05:50:12.912Z,1.10
2022-11-25T05:51:48.852Z,1.08
2022-11-25T05:53:22.477Z,1.10
2022-11-25T05:54:58.178Z,1.25
2022-11-25T05:56:32.789Z,1.48
2022-11-25T05:58:26.606Z,0.93
2022-11-25T06:00:01.798Z,1.10
2022-11-25T06:01:55.345Z,1.63
2022-11-25T06:03:30.251Z,1.17
2022-11-25T06:05:03.487Z,1.00
2022-11-25T06:06:36.905Z,1.15
2022-11-25T06:08:11.955Z,1.23
2022-11-25T06:09:45.329Z,1.60
2022-11-25T06:11:19.404Z,0.90
2022-11-25T06:12:55.428Z,1.05
2022-11-25T06:14:28.668Z,1.20
2022-11-25T06:16:08.104Z,1.00
2022-11-25T06:17:41.532Z,1.30
2022-11-25T06:19:19.810Z,1.60
2022-11-25T06:20:58.768Z,1.77
2022-11-25T06:22:31.974Z,1.15
2022-11-25T06:24:07.755Z,1.60
2022-11-25T06:25:41.072Z,1.00
2022-11-25T06:27:14.426Z,1.17
2022-11-25T06:28:48.800Z,1.45
2022-11-25T06:30:21.478Z,1.70
2022-11-25T06:32:07.710Z,1.50
2022-11-25T06:33:50.388Z,1.23
2022-11-25T06:35:23.793Z,1.40
2022-11-25T06:37:01.332Z,1.20
2022-11-25T06:38:34.898Z,1.45
2022-11-25T06:40:11.353Z,1.50
2022-11-25T06:41:45.343Z,1.02
2022-11-25T06:43:21.513Z,1.20
2022-11-25T06:44:54.823Z,0.93
2022-11-25T06:46:29.237Z,1.65
2022-11-25T06:48:02.443Z,1.30
2022-11-25T06:49:35.618Z,1.10
2022-11-25T06:51:12.245Z,1.42
2022-11-25T06:52:45.397Z,1.65
2022-11-25T06:54:18.853Z,1.27
2022-11-25T06:56:07.017Z,1.83
2022-11-25T06:57:40.241Z,1.70
2022-11-25T06:59:13.364Z,0.88
2022-11-25T07:00:46.457Z,1.20
2022-11-25T07:02:19.739Z,1.15
2022-11-25T07:03:56.061Z,1.08
2022-11-25T07:05:29.232Z,1.08
2022-11-25T07:07:02.464Z,1.20
2022-11-25T07:08:35.648Z,1.55
2022-11-25T07:10:10.317Z,1.67
2022-11-25T07:11:44.782Z,1.05
2022-11-25T07:13:18.160Z,1.20
2022-11-25T07:14:52.099Z,2.05
2022-11-25T07:16:26.186Z,1.05
2022-11-25T07:17:59.315Z,1.10
2022-11-25T07:19:35.481Z,1.13
2022-11-25T07:21:12.068Z,1.77
2022-11-25T07:22:48.424Z,1.33
2022-11-25T07:24:21.534Z,1.40
2022-11-25T07:25:54.698Z,1.67
2022-11-25T07:27:29.213Z,1.65
2022-11-25T07:29:13.942Z,1.40
2022-11-25T07:32:50.310Z,1.50
2022-11-25T07:34:23.815Z,1.30
2022-11-25T07:35:58.685Z,1.50
2022-11-25T07:39:09.676Z,1.58
2022-11-25T07:40:42.790Z,1.30
2022-11-25T07:42:16.020Z,1.23
2022-11-25T07:43:53.104Z,1.10
2022-11-25T07:45:29.094Z,1.40
2022-11-25T07:47:13.178Z,1.50
2022-11-25T07:48:47.500Z,1.02
2022-11-25T07:50:21.449Z,1.30
2022-11-25T07:51:57.668Z,1.50
2022-11-25T07:53:30.998Z,1.38
2022-11-25T07:55:04.404Z,1.15
2022-11-25T07:56:40.558Z,1.23
2022-11-25T07:58:13.836Z,1.85
2022-11-25T07:59:48.469Z,1.40
2022-11-25T08:01:23.368Z,1.30
2022-11-25T08:04:29.866Z,1.33
2022-11-25T08:06:03.988Z,1.33
2022-11-25T08:07:37.223Z,1.30
2022-11-25T08:09:12.926Z,1.48
2022-11-25T08:10:46.123Z,1.80
2022-11-25T08:12:19.296Z,1.80
2022-11-25T08:13:53.070Z,1.27
2022-11-25T08:15:28.122Z,1.63
2022-11-25T08:17:01.289Z,1.70
2022-11-25T08:18:34.688Z,1.33
2022-11-25T08:20:09.740Z,1.80
2022-11-25T08:21:43.368Z,1.80
2022-11-25T08:23:16.600Z,1.90
2022-11-25T08:24:49.748Z,1.60
2022-11-25T08:26:26.658Z,1.48
2022-11-25T08:28:01.032Z,2.08
2022-11-25T08:29:34.328Z,1.38
2022-11-25T08:31:11.597Z,1.25
2022-11-25T08:32:44.861Z,1.88
2022-11-25T08:34:22.238Z,1.70
2022-11-25T08:35:57.970Z,1.80
2022-11-25T08:37:32.234Z,1.88
2022-11-25T08:39:28.904Z,1.73
2022-11-25T08:41:02.175Z,1.63
2022-11-25T08:42:35.362Z,2.08
2022-11-25T08:44:09.953Z,1.40
2022-11-25T08:45:43.128Z,1.80
2022-11-25T08:47:17.606Z,1.73
2022-11-25T08:48:51.274Z,1.83
2022-11-25T08:50:25.455Z,1.90
2022-11-25T08:51:58.641Z,1.73
2022-11-25T08:53:31.821Z,1.80
2022-11-25T08:55:06.157Z,1.45
2022-11-25T08:56:39.417Z,1.48
2022-11-25T08:58:13.141Z,1.80
2022-11-25T08:59:46.593Z,1.50
2022-11-25T09:01:21.492Z,1.75
2022-11-25T09:04:29.457Z,2.15
2022-11-25T09:06:03.984Z,1.90
2022-11-25T09:07:38.154Z,2.10
2022-11-25T09:09:11.638Z,2.05
2022-11-25T09:10:45.359Z,1.80
2022-11-25T09:12:18.729Z,2.50
2022-11-25T09:13:52.014Z,1.50
2022-11-25T09:15:25.448Z,2.00
2022-11-25T09:16:58.719Z,1.70
2022-11-25T09:18:35.196Z,2.00
2022-11-25T09:20:09.711Z,1.80
2022-11-25T09:21:44.913Z,1.65
2022-11-25T09:23:19.175Z,2.42
2022-11-25T09:24:52.808Z,1.75
2022-11-25T09:26:30.113Z,2.00
2022-11-25T09:28:04.017Z,2.30
2022-11-25T09:29:37.509Z,1.88
2022-11-25T09:31:11.280Z,2.10
2022-11-25T09:32:45.205Z,1.83
2022-11-25T09:34:19.702Z,2.13
2022-11-25T09:35:53.064Z,2.97
2022-11-25T09:37:26.265Z,2.63
2022-11-25T09:38:59.408Z,2.28
2022-11-25T09:40:43.640Z,2.50
2022-11-25T09:42:53.157Z,2.10
2022-11-25T09:46:52.330Z,1.40
2022-11-25T09:48:49.689Z,1.52
2022-11-25T09:50:43.968Z,1.30
2022-11-25T09:52:28.725Z,1.80
2022-11-25T09:54:13.976Z,1.50
2022-11-25T09:55:51.362Z,1.60
2022-11-25T09:57:34.149Z,1.70
2022-11-25T09:59:15.970Z,1.98
2022-11-25T10:00:52.716Z,2.85
2022-11-25T10:02:36.651Z,6.22
2022-11-25T10:04:18.741Z,3.10
2022-11-25T10:06:04.280Z,2.60
2022-11-25T10:07:43.538Z,2.40
2022-11-25T10:09:23.374Z,2.42
2022-11-25T10:11:04.312Z,2.20
2022-11-25T10:12:45.738Z,2.25
2022-11-25T10:14:33.865Z,5.30
2022-11-25T10:16:20.671Z,2.58
2022-11-25T10:18:00.983Z,2.88
2022-11-25T10:19:51.913Z,2.13
2022-11-25T10:21:27.126Z,1.75
2022-11-25T10:23:05.448Z,5.40
2022-11-25T10:24:41.398Z,3.50
2022-11-25T10:26:18.504Z,3.50
2022-11-25T10:27:59.058Z,22.10
2022-11-25T10:31:16.813Z,8.35
2022-11-25T10:33:00.803Z,5.55
2022-11-25T10:34:45.562Z,2.65
2022-11-25T10:36:24.158Z,2.25
2022-11-25T10:38:02.706Z,1.75
2022-11-25T10:39:36.457Z,1.85
2022-11-25T10:41:16.697Z,1.40
2022-11-25T10:42:49.996Z,1.35
2022-11-25T10:44:29.498Z,1.77
2022-11-25T10:46:18.817Z,1.40
2022-11-25T10:48:18.900Z,2.08
2022-11-25T10:50:09.428Z,1.65
2022-11-25T10:51:48.914Z,1.95
2022-11-25T10:53:29.930Z,1.55
2022-11-25T10:55:13.869Z,1.88
2022-11-25T10:56:53.054Z,2.03
2022-11-25T10:58:34.465Z,1.90
2022-11-25T11:00:25.944Z,1.75
2022-11-25T11:02:23.016Z,2.20
2022-11-25T11:04:07.348Z,1.70
2022-11-25T11:05:48.780Z,1.83
2022-11-25T11:07:23.228Z,1.75
2022-11-25T11:08:58.090Z,2.22
2022-11-25T11:10:31.332Z,2.30
2022-11-25T11:12:16.580Z,2.10
2022-11-25T11:13:58.648Z,2.00
2022-11-25T11:15:45.069Z,1.70
2022-11-25T11:19:23.985Z,13.00
2022-11-25T11:21:00.201Z,9.00
2022-11-25T11:22:34.969Z,4.50
2022-11-25T11:24:29.807Z,3.35
2022-11-25T11:26:06.276Z,2.30
2022-11-25T11:27:39.982Z,2.47
2022-11-25T11:29:19.414Z,2.38
2022-11-25T11:30:59.453Z,1.77
2022-11-25T11:32:32.852Z,13.95
2022-11-25T11:34:43.455Z,10.00
2022-11-25T11:36:38.309Z,4.43
2022-11-25T11:38:30.595Z,8.80
2022-11-25T11:40:32.961Z,5.38
2022-11-25T11:42:18.148Z,3.25
2022-11-25T11:44:10.005Z,2.92
2022-11-25T11:46:01.202Z,2.30
2022-11-25T11:47:50.564Z,4.55
2022-11-25T11:49:54.764Z,3.25
2022-11-25T11:51:37.643Z,5.03
2022-11-25T11:53:21.836Z,3.42
2022-11-25T11:55:02.780Z,5.53
2022-11-25T11:56:42.746Z,3.53
2022-11-25T11:58:35.236Z,2.67
2022-11-25T12:00:14.904Z,2.30
2022-11-25T12:02:12.564Z,2.92
2022-11-25T12:03:58.675Z,2.80
2022-11-25T12:05:37.294Z,2.70
2022-11-25T12:07:21.584Z,2.55
2022-11-25T12:09:02.402Z,2.38
2022-11-25T12:10:41.086Z,2.42
2022-11-25T12:12:20.141Z,1.90
2022-11-25T12:14:03.267Z,2.58
2022-11-25T12:15:47.615Z,2.00
2022-11-25T12:17:32.059Z,2.00
2022-11-25T12:19:15.996Z,2.40
2022-11-25T12:20:58.599Z,2.08
2022-11-25T12:22:38.943Z,2.25
2022-11-25T12:24:22.873Z,2.40
2022-11-25T12:26:03.960Z,1.92
2022-11-25T12:27:43.423Z,2.22
2022-11-25T12:29:36.983Z,2.63
2022-11-25T12:31:19.989Z,2.00
2022-11-25T12:33:06.828Z,2.13
2022-11-25T12:34:51.431Z,3.25
2022-11-25T12:36:34.993Z,2.40
2022-11-25T12:38:31.501Z,2.30
2022-11-25T12:40:14.862Z,2.53
2022-11-25T12:41:55.106Z,2.22
2022-11-25T12:43:42.193Z,2.00
2022-11-25T12:45:23.915Z,2.50
2022-11-25T12:46:58.769Z,2.22
2022-11-25T12:48:33.247Z,2.30
2022-11-25T12:50:15.180Z,2.30
2022-11-25T12:52:12.764Z,2.17
2022-11-25T12:54:04.373Z,2.15
2022-11-25T12:55:41.343Z,1.98
2022-11-25T12:58:04.758Z,2.10
2022-11-25T13:00:39.306Z,2.78
2022-11-25T13:02:27.679Z,1.85
2022-11-25T13:04:53.953Z,2.00
2022-11-25T13:06:53.934Z,1.80
2022-11-25T13:08:48.985Z,1.70
2022-11-25T13:10:56.515Z,2.30
2022-11-25T13:12:44.746Z,2.28
2022-11-25T13:14:28.150Z,1.73
2022-11-25T13:16:08.517Z,2.25
2022-11-25T13:19:19.335Z,1.55
2022-11-25T13:20:54.635Z,2.13
2022-11-25T13:22:29.722Z,2.17
2022-11-25T13:24:03.356Z,1.92
2022-11-25T13:25:38.481Z,2.00
2022-11-25T13:27:31.931Z,2.35
2022-11-25T13:30:02.318Z,1.77
2022-11-25T13:31:59.737Z,1.80
2022-11-25T13:34:07.504Z,1.90
2022-11-25T13:35:53.997Z,1.83
2022-11-25T13:37:39.888Z,2.13
2022-11-25T13:39:17.764Z,1.75
2022-11-25T13:40:59.071Z,2.13
2022-11-25T13:42:32.449Z,2.13
2022-11-25T13:44:13.686Z,2.03
2022-11-25T13:45:47.079Z,2.13
2022-11-25T13:47:36.157Z,1.88
2022-11-25T13:49:28.185Z,1.80
2022-11-25T13:51:24.449Z,1.67
2022-11-25T13:53:02.711Z,1.90
2022-11-25T13:54:44.607Z,1.60
2022-11-25T13:56:29.841Z,2.13
2022-11-25T13:58:24.177Z,1.90
2022-11-25T14:00:00.973Z,1.92
2022-11-25T14:01:34.276Z,1.90
2022-11-25T14:03:52.808Z,1.70
2022-11-25T14:06:01.636Z,1.90
2022-11-25T14:07:45.489Z,1.80
2022-11-25T14:09:36.124Z,1.75
2022-11-25T14:11:48.475Z,1.85
2022-11-25T14:14:02.514Z,1.90
2022-11-25T14:16:07.193Z,1.88
2022-11-25T14:19:03.180Z,1.83
2022-11-25T14:20:46.104Z,1.65
2022-11-25T14:22:39.936Z,1.67
2022-11-25T14:24:29.852Z,1.77
2022-11-25T14:26:21.072Z,1.42
2022-11-25T14:28:21.936Z,1.63
2022-11-25T14:30:01.575Z,1.90
2022-11-25T14:31:44.260Z,1.63
2022-11-25T14:33:23.883Z,2.10
2022-11-25T14:35:04.786Z,1.85
2022-11-25T14:36:45.577Z,2.03
2022-11-25T14:38:24.264Z,1.60
2022-11-25T14:40:04.785Z,2.13
2022-11-25T14:41:44.015Z,2.30
2022-11-25T14:43:24.242Z,2.25
2022-11-25T14:44:59.226Z,2.15
2022-11-25T14:46:32.758Z,2.53
2022-11-25T14:48:17.240Z,2.20
2022-11-25T14:50:11.832Z,2.35
2022-11-25T14:51:51.205Z,2.08
2022-11-25T14:53:25.551Z,2.80
2022-11-25T14:55:01.747Z,2.90
2022-11-25T14:56:37.955Z,2.70
2022-11-25T14:58:14.051Z,2.00
2022-11-25T14:59:47.801Z,2.83
2022-11-25T15:01:24.967Z,2.22
2022-11-25T15:03:00.890Z,2.40
2022-11-25T15:04:34.728Z,2.90
2022-11-25T15:06:13.673Z,2.70
2022-11-25T15:08:03.916Z,2.30
2022-11-25T15:09:42.981Z,1.48
2022-11-25T15:11:20.035Z,2.15
2022-11-25T15:12:53.928Z,2.50
2022-11-25T15:14:30.501Z,1.65
2022-11-25T15:16:11.433Z,2.35
2022-11-25T15:17:44.759Z,2.03
2022-11-25T15:19:21.538Z,2.58
2022-11-25T15:20:59.769Z,2.22
2022-11-25T15:22:33.124Z,2.20
2022-11-25T15:24:23.544Z,2.70
2022-11-25T15:25:57.695Z,1.80
2022-11-25T15:27:33.300Z,2.50
2022-11-25T15:29:14.434Z,1.90
2022-11-25T15:30:58.493Z,1.65
2022-11-25T15:32:37.864Z,2.78
2022-11-25T15:34:14.462Z,2.47
2022-11-25T15:35:49.154Z,1.98
2022-11-25T15:37:23.907Z,2.50
2022-11-25T15:39:16.571Z,2.60
2022-11-25T15:40:57.179Z,3.28
2022-11-25T15:44:07.134Z,2.65
2022-11-25T15:45:47.806Z,2.53
2022-11-25T15:47:26.346Z,2.63
2022-11-25T15:49:04.018Z,3.03
2022-11-25T15:50:41.519Z,2.47
2022-11-25T15:52:20.471Z,2.40
2022-11-25T15:53:56.578Z,2.58
2022-11-25T15:55:36.628Z,3.00
2022-11-25T15:57:19.941Z,2.40
2022-11-25T15:58:57.277Z,1.95
2022-11-25T16:00:33.429Z,1.80
2022-11-25T16:02:39.570Z,1.90
2022-11-25T16:04:22.183Z,2.40
2022-11-25T16:05:57.253Z,1.73
2022-11-25T16:07:30.543Z,2.33
2022-11-25T16:09:21.465Z,2.00
2022-11-25T16:11:00.260Z,2.38
2022-11-25T16:12:33.485Z,1.42
2022-11-25T16:14:24.988Z,1.98
2022-11-25T16:16:09.895Z,1.48
2022-11-25T16:17:43.381Z,1.67
2022-11-25T16:19:21.914Z,1.23
2022-11-25T16:20:59.165Z,1.88
2022-11-25T16:22:32.405Z,1.80
2022-11-25T16:24:27.557Z,2.05
2022-11-25T16:26:06.855Z,1.98
2022-11-25T16:27:40.483Z,2.13
2022-11-25T16:29:18.897Z,2.90
2022-11-25T16:30:57.862Z,2.90
2022-11-25T16:32:34.406Z,2.22
2022-11-25T16:34:16.443Z,2.22
2022-11-25T16:35:49.777Z,2.08
2022-11-25T16:37:23.670Z,1.88
2022-11-25T16:39:00.024Z,1.90
2022-11-25T16:40:37.821Z,1.63
2022-11-25T16:42:21.160Z,1.67
2022-11-25T16:43:59.323Z,1.30
2022-11-25T16:45:33.818Z,1.70
2022-11-25T16:47:10.608Z,2.00
2022-11-25T16:48:45.041Z,1.65
2022-11-25T16:50:20.836Z,1.63
2022-11-25T16:51:54.556Z,1.50
2022-11-25T16:53:27.893Z,1.30
2022-11-25T16:55:01.247Z,2.30
2022-11-25T16:56:38.518Z,2.42
2022-11-25T16:58:20.423Z,1.80
2022-11-25T16:59:58.722Z,2.85
2022-11-25T17:01:34.685Z,2.17
2022-11-25T17:03:13.475Z,1.85
2022-11-25T17:04:47.799Z,1.63
2022-11-25T17:06:23.858Z,2.47
2022-11-25T17:07:57.262Z,2.40
2022-11-25T17:09:32.249Z,2.03
2022-11-25T17:11:12.654Z,2.53
2022-11-25T17:12:47.657Z,1.88
2022-11-25T17:14:32.142Z,2.22
2022-11-25T17:16:16.394Z,1.80
2022-11-25T17:17:50.590Z,3.13
2022-11-25T17:19:24.422Z,2.17
2022-11-25T17:20:57.797Z,2.55
2022-11-25T17:22:38.916Z,2.65
2022-11-25T17:24:23.276Z,2.40
2022-11-25T17:25:56.586Z,2.75
2022-11-25T17:27:33.052Z,2.40
2022-11-25T17:29:14.114Z,2.83
2022-11-25T17:30:55.068Z,2.40
2022-11-25T17:32:28.893Z,3.00
2022-11-25T17:34:02.231Z,2.00
2022-11-25T17:35:36.601Z,1.98
2022-11-25T17:37:16.119Z,2.67
2022-11-25T17:38:49.386Z,2.80
2022-11-25T17:40:22.700Z,2.50
2022-11-25T17:41:56.028Z,2.50
2022-11-25T17:43:34.351Z,2.33
2022-11-25T17:45:13.980Z,2.88
2022-11-25T17:46:48.799Z,2.50
2022-11-25T17:49:55.554Z,1.95
2022-11-25T17:51:28.961Z,2.55
2022-11-25T17:53:02.091Z,1.77
2022-11-25T17:54:36.088Z,2.00
2022-11-25T17:56:24.733Z,1.63
2022-11-25T17:57:57.946Z,1.60
2022-11-25T17:59:34.489Z,1.75
2022-11-25T18:01:10.430Z,2.15
2022-11-25T18:02:45.404Z,1.85
2022-11-25T18:04:24.498Z,1.52
2022-11-25T18:05:57.628Z,1.92
2022-11-25T18:07:30.838Z,1.65
2022-11-25T18:09:04.361Z,2.10
2022-11-25T18:10:38.989Z,1.85
2022-11-25T18:12:19.556Z,1.73
2022-11-25T18:13:52.847Z,2.08
2022-11-25T18:15:30.754Z,2.08
2022-11-25T18:17:08.407Z,2.70
2022-11-25T18:18:43.021Z,2.75
2022-11-25T18:20:18.999Z,2.10
2022-11-25T18:21:52.561Z,1.70
2022-11-25T18:23:25.960Z,2.00
2022-11-25T18:25:02.198Z,2.30
2022-11-25T18:26:54.109Z,1.83
2022-11-25T18:28:31.419Z,2.15
2022-11-25T18:30:07.250Z,1.88
2022-11-25T18:31:41.012Z,1.90
2022-11-25T18:33:16.132Z,1.95
2022-11-25T18:34:49.298Z,1.65
2022-11-25T18:36:22.641Z,1.55
2022-11-25T18:37:56.780Z,1.45
2022-11-25T18:39:30.110Z,1.88
2022-11-25T18:41:03.842Z,1.70
2022-11-25T18:42:38.672Z,1.77
2022-11-25T18:44:26.143Z,1.50
2022-11-25T18:46:00.759Z,1.65
2022-11-25T18:47:34.391Z,1.73
2022-11-25T18:49:13.540Z,1.75
2022-11-25T18:50:48.715Z,3.38
2022-11-25T18:52:21.945Z,2.90
2022-11-25T18:53:55.235Z,3.10
2022-11-25T18:55:28.882Z,2.40
2022-11-25T18:57:02.348Z,3.83
2022-11-25T18:58:37.516Z,2.15
2022-11-25T19:00:32.119Z,1.83
2022-11-25T19:02:16.912Z,2.40
2022-11-25T19:03:51.084Z,2.47
2022-11-25T19:05:27.278Z,2.78
2022-11-25T19:07:00.437Z,2.80
2022-11-25T19:08:33.765Z,1.77
2022-11-25T19:10:13.560Z,2.85
2022-11-25T19:11:52.824Z,3.10
2022-11-25T19:13:31.582Z,2.42
2022-11-25T19:15:08.164Z,2.58
2022-11-25T19:16:42.288Z,2.20
2022-11-25T19:18:23.979Z,1.95
2022-11-25T19:19:57.214Z,2.70
2022-11-25T19:21:31.396Z,2.03
2022-11-25T19:23:21.145Z,1.58
2022-11-25T19:24:56.443Z,1.65
2022-11-25T19:26:35.459Z,1.92
2022-11-25T19:28:14.348Z,1.90
2022-11-25T19:29:49.029Z,2.03
2022-11-25T19:31:24.049Z,2.08
2022-11-25T19:33:02.109Z,1.67
2022-11-25T19:34:43.678Z,1.80
2022-11-25T19:36:24.110Z,1.90
2022-11-25T19:37:57.435Z,2.30
2022-11-25T19:39:34.433Z,1.83
2022-11-25T19:41:09.015Z,1.98
2022-11-25T19:42:42.614Z,2.03
2022-11-25T19:44:15.908Z,3.35
2022-11-25T19:45:49.436Z,2.10
2022-11-25T19:47:27.219Z,3.30
2022-11-25T19:49:03.815Z,2.67
2022-11-25T19:50:40.309Z,3.38
2022-11-25T19:52:18.009Z,3.72
2022-11-25T19:53:52.717Z,3.10
2022-11-25T19:55:29.807Z,2.33
2022-11-25T19:57:03.107Z,2.03
2022-11-25T19:58:36.293Z,2.90
2022-11-25T20:00:12.181Z,1.80
2022-11-25T20:01:47.641Z,2.80
2022-11-25T20:03:25.360Z,2.30
2022-11-25T20:04:58.851Z,1.88
2022-11-25T20:06:32.699Z,2.28
2022-11-25T20:08:06.403Z,2.03
2022-11-25T20:09:41.020Z,2.20
2022-11-25T20:11:16.187Z,2.25
2022-11-25T20:12:50.635Z,2.30
2022-11-25T20:14:23.964Z,2.20
2022-11-25T20:15:59.037Z,2.30
2022-11-25T20:17:36.436Z,2.00
2022-11-25T20:19:19.125Z,1.73
2022-11-25T20:20:59.349Z,2.50
2022-11-25T20:22:38.153Z,2.38
2022-11-25T20:24:16.554Z,2.70
2022-11-25T20:25:51.376Z,2.80
2022-11-25T20:27:28.586Z,2.67
2022-11-25T20:29:02.051Z,1.65
2022-11-25T20:30:35.268Z,1.80
2022-11-25T20:32:23.108Z,1.90
2022-11-25T20:33:56.358Z,3.90
2022-11-25T20:35:30.971Z,2.75
2022-11-25T20:37:04.567Z,2.83
2022-11-25T20:38:39.552Z,2.30
2022-11-25T20:41:52.584Z,2.55
2022-11-25T20:43:30.113Z,2.30
2022-11-25T20:45:03.926Z,2.55
2022-11-25T20:46:37.170Z,2.70
2022-11-25T20:48:12.590Z,2.47
2022-11-25T20:49:47.512Z,2.08
2022-11-25T20:52:57.620Z,2.17
2022-11-25T20:54:33.207Z,1.77
2022-11-25T20:56:06.861Z,1.75
2022-11-25T20:57:39.989Z,1.98
2022-11-25T20:59:22.617Z,1.83
2022-11-25T21:00:59.277Z,1.90
2022-11-25T21:02:32.685Z,2.15
2022-11-25T21:04:06.203Z,2.47
2022-11-25T21:05:39.507Z,2.25
2022-11-25T21:07:17.839Z,1.83
2022-11-25T21:08:54.334Z,1.55
2022-11-25T21:10:33.493Z,1.73
2022-11-25T21:12:18.782Z,2.00
2022-11-25T21:13:52.837Z,2.58
2022-11-25T21:15:29.189Z,2.25
2022-11-25T21:17:02.470Z,1.70
2022-11-25T21:18:36.217Z,2.33
2022-11-25T21:20:10.890Z,3.10
2022-11-25T21:21:47.704Z,3.28
2022-11-25T21:23:26.008Z,2.85
2022-11-25T21:24:59.299Z,3.70
2022-11-25T21:26:33.431Z,3.25
2022-11-25T21:28:06.647Z,4.32
2022-11-25T21:29:41.982Z,4.38
2022-11-25T21:31:18.446Z,4.40
2022-11-25T21:32:55.391Z,4.40
2022-11-25T21:34:28.745Z,3.60
2022-11-25T21:36:02.018Z,4.35
2022-11-25T21:37:36.817Z,6.47
2022-11-25T21:40:59.211Z,5.63
2022-11-25T21:42:33.439Z,7.78
2022-11-25T21:44:08.642Z,7.75
2022-11-25T21:45:41.929Z,7.90
2022-11-25T21:47:17.354Z,6.13
2022-11-25T21:48:51.118Z,7.60
2022-11-25T21:50:29.113Z,6.57
2022-11-25T21:52:02.275Z,5.93
2022-11-25T21:53:37.431Z,5.45
2022-11-25T21:55:13.718Z,7.13
2022-11-25T21:56:47.364Z,7.00
2022-11-25T21:58:26.499Z,6.82
2022-11-25T21:59:59.861Z,5.13
2022-11-25T22:01:33.744Z,4.85
2022-11-25T22:03:15.245Z,4.45
2022-11-25T22:04:49.162Z,4.85
2022-11-25T22:06:26.353Z,4.68
2022-11-25T22:07:59.778Z,4.95
2022-11-25T22:09:32.040Z,5.10
2022-11-25T22:11:13.625Z,5.72
2022-11-25T22:12:48.601Z,6.25
2022-11-25T22:16:02.048Z,4.68
2022-11-25T22:17:35.393Z,5.15
2022-11-25T22:19:17.768Z,5.20
2022-11-25T22:20:53.561Z,5.35
2022-11-25T22:22:27.009Z,5.50